createdAt,value
2018-11-14T00:00:50.235Z,86.02
2018-11-14T00:03:18.548Z,86.25
2018-11-14T00:05:46.810Z,86.23
2018-11-14T00:08:15.080Z,86.56
2018-11-14T00:10:43.373Z,86.61
2018-11-14T00:13:11.646Z,86.13
2018-11-14T00:15:39.996Z,85.96
2018-11-14T00:18:08.273Z,86.57
2018-11-14T00:20:36.543Z,87.03
2018-11-14T00:23:04.936Z,86.43
2018-11-14T00:25:33.224Z,86.54
2018-11-14T00:28:01.838Z,87.03
2018-11-14T00:30:29.799Z,86.97
2018-11-14T00:32:58.540Z,86.90
2018-11-14T00:35:26.869Z,87.22
2018-11-14T00:37:55.137Z,86.87
2018-11-14T00:40:23.439Z,87.48
2018-11-14T00:42:51.744Z,86.86
2018-11-14T00:45:21.200Z,87.51
2018-11-14T00:47:49.991Z,86.64
2018-11-14T00:50:18.911Z,87.14
2018-11-14T00:52:47.377Z,87.20
2018-11-14T00:55:22.499Z,86.67
2018-11-14T00:57:51.815Z,86.91
2018-11-14T01:00:21.403Z,87.25
2018-11-14T01:02:49.667Z,87.24
2018-11-14T01:05:18.706Z,87.40
2018-11-14T01:07:46.966Z,87.32
2018-11-14T01:10:16.587Z,87.23
2018-11-14T01:12:45.564Z,87.03
2018-11-14T01:15:15.904Z,87.40
2018-11-14T01:17:44.363Z,87.16
2018-11-14T01:20:16.544Z,87.41
2018-11-14T01:22:45.435Z,86.98
2018-11-14T01:25:14.913Z,87.04
2018-11-14T01:27:43.623Z,87.35
2018-11-14T01:30:16.199Z,87.41
2018-11-14T01:32:45.383Z,87.39
2018-11-14T01:35:14.103Z,87.49
2018-11-14T01:37:42.391Z,87.17
2018-11-14T01:40:13.996Z,87.36
2018-11-14T01:42:42.487Z,86.81
2018-11-14T01:45:11.356Z,86.81
2018-11-14T01:47:39.638Z,87.32
2018-11-14T01:50:09.299Z,87.12
2018-11-14T01:52:37.830Z,86.98
2018-11-14T01:55:07.187Z,86.77
2018-11-14T01:57:35.455Z,87.11
2018-11-14T02:00:03.772Z,86.75
2018-11-14T02:02:32.040Z,87.19
2018-11-14T02:05:00.402Z,87.34
2018-11-14T02:07:28.767Z,86.80
2018-11-14T02:09:57.043Z,86.65
2018-11-14T02:12:25.324Z,87.31
2018-11-14T02:14:53.724Z,87.52
2018-11-14T02:17:22.012Z,86.96
2018-11-14T02:19:50.299Z,87.54
2018-11-14T02:22:18.598Z,86.97
2018-11-14T02:24:46.866Z,87.65
2018-11-14T02:27:15.420Z,87.54
2018-11-14T02:29:43.694Z,86.96
2018-11-14T02:32:12.011Z,86.70
2018-11-14T02:34:40.368Z,86.44
2018-11-14T02:37:08.614Z,86.54
2018-11-14T02:39:36.883Z,86.95
2018-11-14T02:42:05.476Z,86.53
2018-11-14T02:44:33.758Z,86.50
2018-11-14T02:47:02.064Z,86.92
2018-11-14T02:49:30.350Z,86.65
2018-11-14T02:51:58.644Z,86.96
2018-11-14T02:54:26.926Z,86.86
2018-11-14T02:56:55.203Z,86.49
2018-11-14T02:59:23.447Z,87.02
2018-11-14T03:01:51.752Z,86.45
2018-11-14T03:04:20.015Z,86.83
2018-11-14T03:06:48.289Z,86.84
2018-11-14T03:09:16.864Z,86.70
2018-11-14T03:11:45.139Z,86.69
2018-11-14T03:14:13.452Z,87.14
2018-11-14T03:16:41.741Z,86.56
2018-11-14T03:19:10.009Z,86.73
2018-11-14T03:21:38.291Z,86.90
2018-11-14T03:24:06.819Z,86.39
2018-11-14T03:26:35.131Z,87.00
2018-11-14T03:29:03.416Z,86.43
2018-11-14T03:31:31.684Z,86.45
2018-11-14T03:33:59.966Z,86.79
2018-11-14T03:36:28.256Z,87.15
2018-11-14T03:38:56.564Z,86.46
2018-11-14T03:41:24.830Z,86.74
2018-11-14T03:43:53.208Z,86.78
2018-11-14T03:46:21.486Z,86.57
2018-11-14T03:48:49.771Z,87.08
2018-11-14T03:51:18.055Z,86.79
2018-11-14T03:53:46.332Z,86.84
2018-11-14T03:56:14.645Z,86.58
2018-11-14T03:58:42.926Z,86.19
2018-11-14T04:01:11.225Z,86.06
2018-11-14T04:03:39.523Z,85.99
2018-11-14T04:06:07.816Z,86.47
2018-11-14T04:08:36.127Z,86.25
2018-11-14T04:11:04.440Z,86.53
2018-11-14T04:13:32.731Z,86.79
2018-11-14T04:16:01.063Z,86.65
2018-11-14T04:18:29.352Z,86.49
2018-11-14T04:20:57.641Z,86.95
2018-11-14T04:23:25.935Z,86.79
2018-11-14T04:25:54.228Z,86.41
2018-11-14T04:28:22.491Z,86.65
2018-11-14T04:30:50.742Z,86.49
2018-11-14T04:33:19.032Z,86.79
2018-11-14T04:35:47.315Z,86.95
2018-11-14T04:38:15.630Z,86.95
2018-11-14T04:40:43.904Z,87.04
2018-11-14T04:43:12.214Z,86.85
2018-11-14T04:45:40.547Z,86.33
2018-11-14T04:48:08.912Z,86.51
2018-11-14T04:50:37.167Z,86.41
2018-11-14T04:53:05.755Z,86.66
2018-11-14T04:55:34.025Z,86.62
2018-11-14T04:58:02.418Z,86.77
2018-11-14T05:00:30.701Z,86.99
2018-11-14T05:02:58.984Z,86.95
2018-11-14T05:05:27.336Z,86.26
2018-11-14T05:07:55.627Z,86.91
2018-11-14T05:10:25.882Z,86.59
2018-11-14T05:12:54.271Z,86.72
2018-11-14T05:15:23.630Z,86.78
2018-11-14T05:17:52.479Z,86.39
2018-11-14T05:20:21.447Z,86.56
2018-11-14T05:22:50.123Z,86.60
2018-11-14T05:25:18.806Z,87.08
2018-11-14T05:27:47.084Z,86.43
2018-11-14T05:30:17.540Z,86.73
2018-11-14T05:32:46.910Z,86.67
2018-11-14T05:35:15.817Z,86.58
2018-11-14T05:37:44.299Z,86.61
2018-11-14T05:40:15.545Z,86.13
2018-11-14T05:42:44.330Z,86.11
2018-11-14T05:45:15.992Z,86.04
2018-11-14T05:47:44.688Z,86.35
2018-11-14T05:50:14.895Z,85.83
2018-11-14T05:52:43.208Z,86.47
2018-11-14T05:55:12.107Z,86.18
2018-11-14T05:57:40.381Z,87.00
2018-11-14T06:00:12.164Z,86.03
2018-11-14T06:02:40.479Z,86.54
2018-11-14T06:05:09.243Z,86.37
2018-11-14T06:07:37.774Z,86.50
2018-11-14T06:10:07.328Z,86.16
2018-11-14T06:12:35.635Z,86.87
2018-11-14T06:15:04.124Z,86.22
2018-11-14T06:17:32.363Z,86.04
2018-11-14T06:20:00.647Z,85.91
2018-11-14T06:22:28.926Z,86.14
2018-11-14T06:25:12.022Z,86.21
2018-11-14T06:27:40.299Z,86.79
2018-11-14T06:30:08.730Z,86.31
2018-11-14T06:32:36.999Z,86.07
2018-11-14T06:35:05.923Z,85.98
2018-11-14T06:37:34.312Z,86.33
2018-11-14T06:40:02.656Z,85.90
2018-11-14T06:42:30.970Z,86.73
2018-11-14T06:44:59.329Z,86.47
2018-11-14T06:47:27.586Z,86.46
2018-11-14T06:49:55.874Z,86.15
2018-11-14T06:52:24.130Z,85.87
2018-11-14T06:54:52.430Z,85.80
2018-11-14T06:57:20.776Z,86.00
2018-11-14T06:59:49.407Z,85.57
2018-11-14T07:02:17.639Z,86.39
2018-11-14T07:04:45.969Z,85.87
2018-11-14T07:07:14.221Z,86.81
2018-11-14T07:09:42.460Z,86.64
2018-11-14T07:12:10.746Z,86.61
2018-11-14T07:14:39.053Z,86.65
2018-11-14T07:17:07.364Z,86.39
2018-11-14T07:19:35.722Z,86.36
2018-11-14T07:22:03.984Z,86.06
2018-11-14T07:24:32.355Z,86.61
2018-11-14T07:27:00.673Z,86.49
2018-11-14T07:29:28.974Z,86.56
2018-11-14T07:31:57.297Z,86.25
2018-11-14T07:34:25.496Z,86.25
2018-11-14T07:36:53.765Z,86.86
2018-11-14T07:39:22.016Z,86.79
2018-11-14T07:41:50.303Z,86.36
2018-11-14T07:44:18.595Z,86.14
2018-11-14T07:46:46.866Z,86.50
2018-11-14T07:49:15.203Z,86.46
2018-11-14T07:51:43.417Z,86.67
2018-11-14T07:54:11.691Z,87.14
2018-11-14T07:56:40.002Z,86.40
2018-11-14T07:59:08.260Z,86.87
2018-11-14T08:01:36.564Z,86.79
2018-11-14T08:04:04.970Z,86.87
2018-11-14T08:06:33.228Z,86.78
2018-11-14T08:09:01.559Z,86.98
2018-11-14T08:11:29.827Z,86.53
2018-11-14T08:13:58.116Z,87.10
2018-11-14T08:16:26.379Z,87.23
2018-11-14T08:18:54.697Z,87.15
2018-11-14T08:21:22.933Z,87.87
2018-11-14T08:23:51.204Z,88.08
2018-11-14T08:26:19.627Z,87.03
2018-11-14T08:28:47.864Z,88.18
2018-11-14T08:31:16.139Z,87.60
2018-11-14T08:33:44.392Z,87.74
2018-11-14T08:36:12.688Z,88.09
2018-11-14T08:38:40.973Z,88.32
2018-11-14T08:41:09.257Z,88.38
2018-11-14T08:43:37.584Z,88.57
2018-11-14T08:46:06.516Z,88.02
2018-11-14T08:48:34.795Z,88.59
2018-11-14T08:51:03.083Z,88.66
2018-11-14T08:53:31.427Z,88.08
2018-11-14T08:55:59.726Z,88.47
2018-11-14T08:58:28.101Z,87.95
2018-11-14T09:00:56.403Z,88.71
2018-11-14T09:03:24.787Z,88.13
2018-11-14T09:05:53.148Z,88.36
2018-11-14T09:08:21.738Z,88.35
2018-11-14T09:10:50.097Z,88.31
2018-11-14T09:13:18.379Z,88.13
2018-11-14T09:15:46.732Z,88.26
2018-11-14T09:18:15.483Z,87.68
2018-11-14T09:20:43.796Z,87.71
2018-11-14T09:23:12.075Z,88.04
2018-11-14T09:25:40.330Z,87.58
2018-11-14T09:28:08.611Z,87.52
2018-11-14T09:30:36.875Z,87.82
2018-11-14T09:33:05.994Z,87.06
2018-11-14T09:35:34.258Z,87.34
2018-11-14T09:38:02.532Z,87.13
2018-11-14T09:40:31.195Z,86.92
2018-11-14T09:42:59.479Z,86.84
2018-11-14T09:45:28.986Z,86.20
2018-11-14T09:47:57.258Z,86.91
2018-11-14T09:50:27.596Z,86.28
2018-11-14T09:52:59.252Z,86.04
2018-11-14T09:55:27.600Z,85.97
2018-11-14T09:57:55.961Z,85.89
2018-11-14T10:00:25.486Z,85.93
2018-11-14T10:02:58.493Z,85.65
2018-11-14T10:05:26.844Z,85.12
2018-11-14T10:07:55.158Z,85.15
2018-11-14T10:10:23.841Z,84.66
2018-11-14T10:12:52.111Z,84.60
2018-11-14T10:15:21.617Z,84.52
2018-11-14T10:17:50.079Z,84.00
2018-11-14T10:20:19.698Z,83.39
2018-11-14T10:22:48.025Z,83.79
2018-11-14T10:25:17.222Z,83.79
2018-11-14T10:27:46.067Z,83.13
2018-11-14T10:30:16.696Z,82.61
2018-11-14T10:32:45.813Z,82.27
2018-11-14T10:35:14.091Z,82.26
2018-11-14T10:37:42.653Z,81.99
2018-11-14T10:40:13.490Z,81.89
2018-11-14T10:42:42.423Z,81.30
2018-11-14T10:45:12.391Z,81.36
2018-11-14T10:47:40.995Z,81.02
2018-11-14T10:50:12.779Z,80.35
2018-11-14T10:52:41.073Z,79.88
2018-11-14T10:55:12.838Z,79.85
2018-11-14T10:57:41.252Z,79.69
2018-11-14T11:00:19.943Z,79.29
2018-11-14T11:02:53.568Z,78.61
2018-11-14T11:06:30.945Z,78.06
2018-11-14T11:09:04.399Z,78.10
2018-11-14T11:11:37.994Z,77.41
2018-11-14T11:14:11.535Z,77.09
2018-11-14T11:16:45.275Z,76.77
2018-11-14T11:19:14.372Z,75.31
2018-11-14T11:21:43.302Z,74.74
2018-11-14T11:24:12.167Z,74.92
2018-11-14T11:26:40.412Z,74.72
2018-11-14T11:29:09.892Z,74.04
2018-11-14T11:31:38.303Z,74.11
2018-11-14T11:34:07.299Z,73.50
2018-11-14T11:36:35.653Z,73.20
2018-11-14T11:39:05.656Z,72.24
2018-11-14T11:41:33.942Z,72.80
2018-11-14T11:44:02.419Z,72.09
2018-11-14T11:46:30.694Z,72.29
2018-11-14T11:48:59.342Z,72.15
2018-11-14T11:51:27.590Z,72.03
2018-11-14T11:53:55.951Z,71.79
2018-11-14T11:56:24.216Z,71.79
2018-11-14T11:58:52.472Z,71.64
2018-11-14T12:01:20.780Z,70.89
2018-11-14T12:03:49.076Z,71.19
2018-11-14T12:06:17.431Z,71.11
2018-11-14T12:08:45.635Z,71.81
2018-11-14T12:11:13.912Z,71.27
2018-11-14T12:13:42.242Z,71.14
2018-11-14T12:16:10.495Z,71.33
2018-11-14T12:18:38.759Z,70.64
2018-11-14T12:21:07.272Z,71.05
2018-11-14T12:23:35.581Z,69.99
2018-11-14T12:26:03.915Z,70.73
2018-11-14T12:28:32.160Z,70.21
2018-11-14T12:31:00.531Z,69.90
2018-11-14T12:33:28.688Z,69.82
2018-11-14T12:35:56.964Z,69.59
2018-11-14T12:38:25.232Z,69.65
2018-11-14T12:40:53.506Z,69.11
2018-11-14T12:43:21.754Z,69.06
2018-11-14T12:45:50.037Z,68.71
2018-11-14T12:48:18.290Z,68.82
2018-11-14T12:50:46.605Z,68.84
2018-11-14T12:53:14.875Z,68.42
2018-11-14T12:55:43.172Z,68.87
2018-11-14T12:58:11.441Z,69.35
2018-11-14T13:00:39.727Z,68.31
2018-11-14T13:03:08.019Z,68.95
2018-11-14T13:05:36.299Z,68.78
2018-11-14T13:08:04.630Z,68.81
2018-11-14T13:10:32.981Z,68.47
2018-11-14T13:13:01.275Z,68.48
2018-11-14T13:15:29.542Z,68.34
2018-11-14T13:17:57.932Z,69.05
2018-11-14T13:20:26.289Z,68.85
2018-11-14T13:22:54.542Z,68.38
2018-11-14T13:25:22.855Z,68.99
2018-11-14T13:27:51.128Z,69.54
2018-11-14T13:30:20.731Z,68.24
2018-11-14T13:32:49.944Z,68.99
2018-11-14T13:35:19.325Z,68.94
2018-11-14T13:37:48.452Z,68.50
2018-11-14T13:40:16.804Z,68.28
2018-11-14T13:42:45.238Z,68.18
2018-11-14T13:45:14.759Z,68.88
2018-11-14T13:47:43.419Z,68.06
2018-11-14T13:50:14.023Z,68.25
2018-11-14T13:52:42.223Z,67.96
2018-11-14T13:55:12.172Z,68.02
2018-11-14T13:57:41.076Z,68.10
2018-11-14T14:00:11.171Z,68.31
2018-11-14T14:02:39.480Z,68.12
2018-11-14T14:05:09.779Z,67.33
2018-11-14T14:07:38.046Z,67.59
2018-11-14T14:10:07.438Z,66.99
2018-11-14T14:12:36.116Z,67.04
2018-11-14T14:15:04.863Z,67.29
2018-11-14T14:17:33.135Z,67.47
2018-11-14T14:20:01.439Z,67.44
2018-11-14T14:22:29.695Z,67.61
2018-11-14T14:24:57.943Z,67.91
2018-11-14T14:27:26.294Z,68.05
2018-11-14T14:29:54.628Z,68.04
2018-11-14T14:32:23.144Z,68.65
2018-11-14T14:34:51.452Z,68.30
2018-11-14T14:37:19.737Z,68.41
2018-11-14T14:39:48.034Z,68.47
2018-11-14T14:42:16.415Z,68.14
2018-11-14T14:44:44.727Z,68.36
2018-11-14T14:47:13.147Z,68.24
2018-11-14T14:49:41.438Z,68.83
2018-11-14T14:52:09.700Z,68.89
2018-11-14T14:54:37.962Z,68.78
2018-11-14T14:57:06.384Z,69.37
2018-11-14T14:59:34.668Z,69.93
2018-11-14T15:02:02.985Z,69.70
2018-11-14T15:04:31.284Z,69.43
2018-11-14T15:06:59.584Z,70.20
2018-11-14T15:09:28.120Z,70.69
2018-11-14T15:11:56.387Z,70.27
2018-11-14T15:14:24.674Z,70.24
2018-11-14T15:16:52.943Z,70.25
2018-11-14T15:19:21.214Z,70.62
2018-11-14T15:21:49.506Z,71.57
2018-11-14T15:24:18.012Z,71.77
2018-11-14T15:26:46.296Z,72.18
2018-11-14T15:29:14.567Z,73.03
2018-11-14T15:31:42.850Z,72.91
2018-11-14T15:34:11.128Z,73.95
2018-11-14T15:36:39.443Z,74.54
2018-11-14T15:39:09.401Z,74.80
2018-11-14T15:41:37.775Z,75.65
2018-11-14T15:44:06.181Z,75.53
2018-11-14T15:46:34.478Z,75.87
2018-11-14T15:49:02.752Z,76.12
2018-11-14T15:51:31.051Z,76.19
2018-11-14T15:53:59.310Z,76.25
2018-11-14T15:56:27.582Z,76.37
2018-11-14T15:58:55.866Z,77.33
2018-11-14T16:01:24.144Z,77.53
2018-11-14T16:03:52.415Z,77.82
2018-11-14T16:06:20.741Z,77.58
2018-11-14T16:08:48.971Z,78.23
2018-11-14T16:11:17.282Z,78.17
2018-11-14T16:13:49.717Z,78.28
2018-11-14T16:16:17.976Z,79.08
2018-11-14T16:18:46.253Z,79.19
2018-11-14T16:21:14.514Z,78.83
2018-11-14T16:23:42.799Z,79.22
2018-11-14T16:26:11.042Z,79.34
2018-11-14T16:28:39.320Z,79.19
2018-11-14T16:31:07.603Z,79.68
2018-11-14T16:33:35.890Z,80.00
2018-11-14T16:36:04.211Z,79.27
2018-11-14T16:38:32.501Z,79.20
2018-11-14T16:41:00.806Z,79.36
2018-11-14T16:43:29.084Z,79.81
2018-11-14T16:45:57.378Z,80.25
2018-11-14T16:48:25.654Z,80.12
2018-11-14T16:50:53.972Z,80.63
2018-11-14T16:53:22.316Z,80.21
2018-11-14T16:55:50.632Z,80.32
2018-11-14T16:58:18.901Z,80.74
2018-11-14T17:00:47.211Z,80.87
2018-11-14T17:03:15.490Z,80.94
2018-11-14T17:05:43.844Z,81.31
2018-11-14T17:08:12.106Z,80.99
2018-11-14T17:10:40.378Z,81.63
2018-11-14T17:13:08.669Z,81.85
2018-11-14T17:15:36.932Z,81.66
2018-11-14T17:18:05.591Z,81.74
2018-11-14T17:20:33.869Z,81.53
2018-11-14T17:23:02.131Z,81.82
2018-11-14T17:25:30.462Z,82.04
2018-11-14T17:27:58.695Z,82.40
2018-11-14T17:30:28.007Z,81.64
2018-11-14T17:32:56.465Z,82.16
2018-11-14T17:35:24.750Z,82.12
2018-11-14T17:37:53.035Z,82.04
2018-11-14T17:40:23.656Z,81.55
2018-11-14T17:42:52.556Z,81.70
2018-11-14T17:45:23.822Z,82.30
2018-11-14T17:47:52.486Z,81.90
2018-11-14T17:50:23.412Z,82.79
2018-11-14T17:52:52.728Z,82.45
2018-11-14T17:55:21.816Z,82.56
2018-11-14T17:57:50.043Z,82.78
2018-11-14T18:00:20.558Z,83.21
2018-11-14T18:02:48.861Z,82.79
2018-11-14T18:05:19.562Z,82.93
2018-11-14T18:07:48.511Z,83.17
2018-11-14T18:10:19.058Z,83.15
2018-11-14T18:12:48.274Z,83.21
2018-11-14T18:15:16.821Z,82.22
2018-11-14T18:17:45.423Z,82.45
2018-11-14T18:20:15.828Z,83.52
2018-11-14T18:22:44.863Z,82.91
2018-11-14T18:25:13.732Z,83.36
2018-11-14T18:27:42.032Z,83.53
2018-11-14T18:30:14.901Z,83.01
2018-11-14T18:32:43.172Z,83.78
2018-11-14T18:35:13.738Z,83.35
2018-11-14T18:37:42.714Z,82.69
2018-11-14T18:40:13.295Z,82.71
2018-11-14T18:42:41.903Z,83.64
2018-11-14T18:45:12.880Z,83.21
2018-11-14T18:47:41.430Z,83.65
2018-11-14T18:50:11.164Z,83.58
2018-11-14T18:52:39.487Z,84.23
2018-11-14T18:55:09.024Z,83.99
2018-11-14T18:57:37.433Z,83.72
2018-11-14T19:00:08.107Z,83.69
2018-11-14T19:02:36.387Z,83.86
2018-11-14T19:05:05.329Z,84.00
2018-11-14T19:07:33.649Z,83.75
2018-11-14T19:10:02.265Z,84.42
2018-11-14T19:12:30.611Z,83.98
2018-11-14T19:14:58.894Z,84.22
2018-11-14T19:17:27.161Z,84.11
2018-11-14T19:19:55.437Z,84.31
2018-11-14T19:22:23.715Z,83.84
2018-11-14T19:24:58.350Z,84.57
2018-11-14T19:27:26.645Z,84.29
2018-11-14T19:29:54.924Z,83.61
2018-11-14T19:32:23.208Z,84.21
2018-11-14T19:34:51.896Z,84.09
2018-11-14T19:37:20.192Z,84.10
2018-11-14T19:39:48.467Z,83.77
2018-11-14T19:42:16.723Z,84.17
2018-11-14T19:44:44.995Z,84.15
2018-11-14T19:47:13.283Z,84.47
2018-11-14T19:49:41.606Z,84.30
2018-11-14T19:52:09.882Z,84.37
2018-11-14T19:54:38.157Z,84.55
2018-11-14T19:57:07.018Z,84.21
2018-11-14T19:59:35.296Z,84.74
2018-11-14T20:02:03.555Z,84.23
2018-11-14T20:04:31.934Z,84.41
2018-11-14T20:07:00.223Z,84.91
2018-11-14T20:09:28.489Z,84.97
2018-11-14T20:11:56.767Z,85.27
2018-11-14T20:14:25.102Z,84.29
2018-11-14T20:16:53.383Z,85.00
2018-11-14T20:19:21.691Z,84.48
2018-11-14T20:21:49.956Z,84.97
2018-11-14T20:24:18.239Z,85.09
2018-11-14T20:26:46.808Z,85.19
2018-11-14T20:29:15.089Z,85.04
2018-11-14T20:31:43.475Z,85.27
2018-11-14T20:34:11.651Z,85.30
2018-11-14T20:36:39.955Z,85.14
2018-11-14T20:39:10.372Z,85.11
2018-11-14T20:41:38.671Z,84.94
2018-11-14T20:44:07.783Z,85.56
2018-11-14T20:46:36.147Z,85.48
2018-11-14T20:49:04.642Z,85.57
2018-11-14T20:51:32.883Z,86.01
2018-11-14T20:54:01.194Z,86.03
2018-11-14T20:56:29.560Z,86.00
2018-11-14T20:58:57.804Z,86.65
2018-11-14T21:01:26.078Z,86.72
2018-11-14T21:03:54.923Z,86.61
2018-11-14T21:06:23.280Z,85.88
2018-11-14T21:08:51.576Z,85.89
2018-11-14T21:11:19.864Z,85.54
2018-11-14T21:13:48.145Z,85.56
2018-11-14T21:16:16.451Z,85.80
2018-11-14T21:18:44.728Z,84.96
2018-11-14T21:21:13.004Z,85.52
2018-11-14T21:23:41.348Z,85.93
2018-11-14T21:26:09.568Z,85.95
2018-11-14T21:28:37.863Z,86.27
2018-11-14T21:31:06.186Z,86.19
2018-11-14T21:33:34.823Z,86.25
2018-11-14T21:36:03.100Z,85.88
2018-11-14T21:38:31.429Z,85.86
2018-11-14T21:40:59.631Z,85.48
2018-11-14T21:43:27.952Z,85.64
2018-11-14T21:45:56.194Z,85.64
2018-11-14T21:48:24.473Z,85.56
2018-11-14T21:50:53.615Z,85.55
2018-11-14T21:53:21.983Z,85.54
2018-11-14T21:55:50.216Z,86.10
2018-11-14T21:58:18.491Z,85.70
2018-11-14T22:00:46.773Z,85.90
2018-11-14T22:03:15.045Z,85.96
2018-11-14T22:05:43.334Z,85.94
2018-11-14T22:08:11.734Z,86.30
2018-11-14T22:10:40.031Z,86.09
2018-11-14T22:13:08.314Z,86.58
2018-11-14T22:15:36.564Z,86.59
2018-11-14T22:18:04.835Z,86.22
2018-11-14T22:20:33.107Z,86.05
2018-11-14T22:23:01.382Z,85.89
2018-11-14T22:25:30.323Z,86.25
2018-11-14T22:27:58.650Z,86.37
2018-11-14T22:30:31.148Z,85.87
2018-11-14T22:32:59.659Z,85.65
2018-11-14T22:35:29.694Z,85.70
2018-11-14T22:37:57.866Z,86.19
2018-11-14T22:40:27.448Z,86.56
2018-11-14T22:42:55.746Z,86.01
2018-11-14T22:45:31.780Z,86.08
2018-11-14T22:48:00.032Z,86.20
2018-11-14T22:50:28.566Z,86.13
2018-11-14T22:52:56.844Z,85.97
2018-11-14T22:55:25.800Z,86.17
2018-11-14T22:57:54.401Z,86.92
2018-11-14T23:00:31.839Z,86.47
2018-11-14T23:03:01.387Z,86.62
2018-11-14T23:05:29.684Z,86.56
2018-11-14T23:07:58.652Z,86.16
2018-11-14T23:10:27.331Z,86.37
2018-11-14T23:12:55.701Z,86.66
2018-11-14T23:15:24.435Z,86.49
2018-11-14T23:17:52.867Z,86.63
2018-11-14T23:20:21.271Z,86.46
2018-11-14T23:22:50.253Z,86.96
2018-11-14T23:25:19.042Z,86.76
2018-11-14T23:27:48.549Z,87.33
2018-11-14T23:30:17.727Z,86.34
2018-11-14T23:32:47.292Z,87.03
2018-11-14T23:35:16.856Z,86.54
2018-11-14T23:37:47.090Z,86.17
2018-11-14T23:40:15.383Z,86.56
2018-11-14T23:42:43.681Z,85.83
2018-11-14T23:45:13.992Z,85.97
2018-11-14T23:47:42.940Z,86.05
2018-11-14T23:50:16.016Z,86.39
2018-11-14T23:52:45.322Z,86.35
2018-11-14T23:55:14.026Z,86.10
2018-11-14T23:57:42.328Z,86.53
